sensor_id;sensor_type;location;lat;lon;timestamp;temperature;humidity
22321;DHT22;11328;53.928;18.522;2022-09-21T00:01:28;11.70;99.90
22321;DHT22;11328;53.928;18.522;2022-09-21T00:03:58;11.70;99.90
22321;DHT22;11328;53.928;18.522;2022-09-21T00:06:30;11.60;99.90
22321;DHT22;11328;53.928;18.522;2022-09-21T00:08:59;11.60;99.90
22321;DHT22;11328;53.928;18.522;2022-09-21T00:11:29;11.70;99.90
22321;DHT22;11328;53.928;18.522;2022-09-21T00:13:59;11.70;99.90
22321;DHT22;11328;53.928;18.522;2022-09-21T00:16:30;11.70;99.90
22321;DHT22;11328;53.928;18.522;2022-09-21T00:18:58;11.70;99.90
22321;DHT22;11328;53.928;18.522;2022-09-21T00:21:26;11.70;99.90
22321;DHT22;11328;53.928;18.522;2022-09-21T00:23:54;11.70;99.90
22321;DHT22;11328;53.928;18.522;2022-09-21T00:26:23;11.70;99.90
22321;DHT22;11328;53.928;18.522;2022-09-21T00:28:59;11.70;99.90
22321;DHT22;11328;53.928;18.522;2022-09-21T00:31:29;11.70;99.90
22321;DHT22;11328;53.928;18.522;2022-09-21T00:33:57;11.80;99.90
22321;DHT22;11328;53.928;18.522;2022-09-21T00:36:26;11.70;99.90
22321;DHT22;11328;53.928;18.522;2022-09-21T00:38:56;11.70;99.90
22321;DHT22;11328;53.928;18.522;2022-09-21T00:41:28;11.70;99.90
22321;DHT22;11328;53.928;18.522;2022-09-21T00:46:48;11.60;99.90
22321;DHT22;11328;53.928;18.522;2022-09-21T00:49:19;11.60;99.90
22321;DHT22;11328;53.928;18.522;2022-09-21T00:51:47;11.60;99.90
22321;DHT22;11328;53.928;18.522;2022-09-21T00:54:21;11.50;99.90
22321;DHT22;11328;53.928;18.522;2022-09-21T00:56:53;11.50;99.90
22321;DHT22;11328;53.928;18.522;2022-09-21T00:59:21;11.50;99.90
22321;DHT22;11328;53.928;18.522;2022-09-21T01:01:55;11.50;99.90
22321;DHT22;11328;53.928;18.522;2022-09-21T01:04:24;11.40;99.90
22321;DHT22;11328;53.928;18.522;2022-09-21T01:06:55;11.40;99.90
22321;DHT22;11328;53.928;18.522;2022-09-21T01:09:25;11.30;99.90
22321;DHT22;11328;53.928;18.522;2022-09-21T01:17:43;11.40;99.90
22321;DHT22;11328;53.928;18.522;2022-09-21T01:20:28;11.30;99.90
22321;DHT22;11328;53.928;18.522;2022-09-21T01:29:41;11.20;99.90
22321;DHT22;11328;53.928;18.522;2022-09-21T01:32:35;11.20;99.90
22321;DHT22;11328;53.928;18.522;2022-09-21T01:35:20;11.20;99.90
22321;DHT22;11328;53.928;18.522;2022-09-21T01:38:01;11.20;99.90
22321;DHT22;11328;53.928;18.522;2022-09-21T01:40:37;11.10;99.90
22321;DHT22;11328;53.928;18.522;2022-09-21T01:43:11;11.00;99.90
22321;DHT22;11328;53.928;18.522;2022-09-21T01:45:49;10.90;99.90
22321;DHT22;11328;53.928;18.522;2022-09-21T02:01:22;10.80;99.90
22321;DHT22;11328;53.928;18.522;2022-09-21T02:03:56;11.30;99.90
22321;DHT22;11328;53.928;18.522;2022-09-21T02:06:29;11.10;99.90
22321;DHT22;11328;53.928;18.522;2022-09-21T02:08:57;11.00;99.90
22321;DHT22;11328;53.928;18.522;2022-09-21T02:11:26;11.00;99.90
22321;DHT22;11328;53.928;18.522;2022-09-21T02:13:54;10.80;99.90
22321;DHT22;11328;53.928;18.522;2022-09-21T02:16:26;10.80;99.90
22321;DHT22;11328;53.928;18.522;2022-09-21T02:19:20;10.80;99.90
22321;DHT22;11328;53.928;18.522;2022-09-21T02:22:37;10.70;99.90
22321;DHT22;11328;53.928;18.522;2022-09-21T02:25:17;10.60;99.90
22321;DHT22;11328;53.928;18.522;2022-09-21T02:31:05;10.50;99.90
22321;DHT22;11328;53.928;18.522;2022-09-21T02:33:49;10.50;99.90
22321;DHT22;11328;53.928;18.522;2022-09-21T02:36:37;10.50;99.90
22321;DHT22;11328;53.928;18.522;2022-09-21T02:39:20;10.40;99.90
22321;DHT22;11328;53.928;18.522;2022-09-21T02:42:17;10.50;99.90
22321;DHT22;11328;53.928;18.522;2022-09-21T02:45:21;10.40;99.90
22321;DHT22;11328;53.928;18.522;2022-09-21T02:48:06;10.40;99.90
22321;DHT22;11328;53.928;18.522;2022-09-21T02:50:40;10.30;99.90
22321;DHT22;11328;53.928;18.522;2022-09-21T02:53:12;10.30;99.90
22321;DHT22;11328;53.928;18.522;2022-09-21T02:55:45;10.30;99.90
22321;DHT22;11328;53.928;18.522;2022-09-21T02:58:31;10.20;99.90
22321;DHT22;11328;53.928;18.522;2022-09-21T03:01:17;10.20;99.90
22321;DHT22;11328;53.928;18.522;2022-09-21T03:03:55;10.10;99.90
22321;DHT22;11328;53.928;18.522;2022-09-21T03:06:32;10.20;99.90
22321;DHT22;11328;53.928;18.522;2022-09-21T03:09:06;10.20;99.90
22321;DHT22;11328;53.928;18.522;2022-09-21T03:11:39;10.20;99.90
22321;DHT22;11328;53.928;18.522;2022-09-21T03:14:23;10.20;99.90
22321;DHT22;11328;53.928;18.522;2022-09-21T03:16:59;10.20;99.90
22321;DHT22;11328;53.928;18.522;2022-09-21T03:19:41;10.20;99.90
22321;DHT22;11328;53.928;18.522;2022-09-21T03:22:23;10.20;99.90
22321;DHT22;11328;53.928;18.522;2022-09-21T03:24:55;10.30;99.90
22321;DHT22;11328;53.928;18.522;2022-09-21T03:27:36;10.30;99.90
22321;DHT22;11328;53.928;18.522;2022-09-21T03:30:21;10.30;99.90
22321;DHT22;11328;53.928;18.522;2022-09-21T03:32:59;10.30;99.90
22321;DHT22;11328;53.928;18.522;2022-09-21T03:35:41;10.30;99.90
22321;DHT22;11328;53.928;18.522;2022-09-21T03:38:17;10.30;99.90
22321;DHT22;11328;53.928;18.522;2022-09-21T03:40:53;10.30;99.90
22321;DHT22;11328;53.928;18.522;2022-09-21T03:43:33;10.30;99.90
22321;DHT22;11328;53.928;18.522;2022-09-21T03:46:08;10.40;99.90
22321;DHT22;11328;53.928;18.522;2022-09-21T03:48:47;10.40;99.90
22321;DHT22;11328;53.928;18.522;2022-09-21T03:51:20;10.40;99.90
22321;DHT22;11328;53.928;18.522;2022-09-21T03:53:49;10.40;99.90
22321;DHT22;11328;53.928;18.522;2022-09-21T03:56:22;10.40;99.90
22321;DHT22;11328;53.928;18.522;2022-09-21T03:58:50;10.50;99.90
22321;DHT22;11328;53.928;18.522;2022-09-21T04:01:18;10.50;99.90
22321;DHT22;11328;53.928;18.522;2022-09-21T04:03:46;10.60;99.90
22321;DHT22;11328;53.928;18.522;2022-09-21T04:06:14;10.60;99.90
22321;DHT22;11328;53.928;18.522;2022-09-21T04:08:44;10.60;99.90
22321;DHT22;11328;53.928;18.522;2022-09-21T04:11:13;10.70;99.90
22321;DHT22;11328;53.928;18.522;2022-09-21T04:13:42;10.60;99.90
22321;DHT22;11328;53.928;18.522;2022-09-21T04:16:10;10.60;99.90
22321;DHT22;11328;53.928;18.522;2022-09-21T04:18:39;10.60;99.90
22321;DHT22;11328;53.928;18.522;2022-09-21T04:21:07;10.60;99.90
22321;DHT22;11328;53.928;18.522;2022-09-21T04:23:37;10.60;99.90
22321;DHT22;11328;53.928;18.522;2022-09-21T04:26:44;10.60;99.90
22321;DHT22;11328;53.928;18.522;2022-09-21T04:29:23;10.60;99.90
22321;DHT22;11328;53.928;18.522;2022-09-21T04:32:01;10.60;99.90
22321;DHT22;11328;53.928;18.522;2022-09-21T04:34:55;10.70;99.90
22321;DHT22;11328;53.928;18.522;2022-09-21T04:37:32;10.70;99.90
22321;DHT22;11328;53.928;18.522;2022-09-21T04:40:13;10.70;99.90
22321;DHT22;11328;53.928;18.522;2022-09-21T04:42:50;10.70;99.90
22321;DHT22;11328;53.928;18.522;2022-09-21T04:45:28;10.80;99.90
22321;DHT22;11328;53.928;18.522;2022-09-21T04:48:04;10.80;99.90
22321;DHT22;11328;53.928;18.522;2022-09-21T04:50:39;10.80;99.90
22321;DHT22;11328;53.928;18.522;2022-09-21T04:53:16;10.80;99.90
22321;DHT22;11328;53.928;18.522;2022-09-21T04:55:48;11.00;99.90
22321;DHT22;11328;53.928;18.522;2022-09-21T04:58:25;11.00;99.90
22321;DHT22;11328;53.928;18.522;2022-09-21T05:01:00;11.10;99.90
22321;DHT22;11328;53.928;18.522;2022-09-21T05:03:33;11.00;99.90
22321;DHT22;11328;53.928;18.522;2022-09-21T05:06:06;11.00;99.90
22321;DHT22;11328;53.928;18.522;2022-09-21T05:08:44;11.00;99.90
22321;DHT22;11328;53.928;18.522;2022-09-21T05:11:37;11.10;99.90
22321;DHT22;11328;53.928;18.522;2022-09-21T05:14:14;11.00;99.90
22321;DHT22;11328;53.928;18.522;2022-09-21T05:16:48;11.00;99.90
22321;DHT22;11328;53.928;18.522;2022-09-21T05:19:19;11.00;99.90
22321;DHT22;11328;53.928;18.522;2022-09-21T05:21:52;11.00;99.90
22321;DHT22;11328;53.928;18.522;2022-09-21T05:24:35;11.00;99.90
22321;DHT22;11328;53.928;18.522;2022-09-21T05:27:15;10.90;99.90
22321;DHT22;11328;53.928;18.522;2022-09-21T05:29:50;10.90;99.90
22321;DHT22;11328;53.928;18.522;2022-09-21T05:38:02;10.90;99.90
22321;DHT22;11328;53.928;18.522;2022-09-21T05:40:46;11.00;99.90
22321;DHT22;11328;53.928;18.522;2022-09-21T05:43:20;11.00;99.90
22321;DHT22;11328;53.928;18.522;2022-09-21T05:46:07;11.00;99.90
22321;DHT22;11328;53.928;18.522;2022-09-21T05:52:35;11.10;99.90
22321;DHT22;11328;53.928;18.522;2022-09-21T05:55:25;11.20;99.90
22321;DHT22;11328;53.928;18.522;2022-09-21T06:01:00;11.50;99.90
22321;DHT22;11328;53.928;18.522;2022-09-21T06:03:51;11.50;99.90
22321;DHT22;11328;53.928;18.522;2022-09-21T06:06:20;11.80;99.90
22321;DHT22;11328;53.928;18.522;2022-09-21T06:08:48;11.90;99.90
22321;DHT22;11328;53.928;18.522;2022-09-21T06:11:16;11.90;99.90
22321;DHT22;11328;53.928;18.522;2022-09-21T06:13:45;12.10;99.90
22321;DHT22;11328;53.928;18.522;2022-09-21T06:16:14;12.40;99.90
22321;DHT22;11328;53.928;18.522;2022-09-21T06:18:41;12.60;99.90
22321;DHT22;11328;53.928;18.522;2022-09-21T06:21:10;12.90;99.90
22321;DHT22;11328;53.928;18.522;2022-09-21T06:23:38;13.10;99.90
22321;DHT22;11328;53.928;18.522;2022-09-21T06:26:07;13.20;99.90
22321;DHT22;11328;53.928;18.522;2022-09-21T06:28:34;13.20;99.90
22321;DHT22;11328;53.928;18.522;2022-09-21T06:31:03;13.20;99.90
22321;DHT22;11328;53.928;18.522;2022-09-21T06:33:31;13.20;99.90
22321;DHT22;11328;53.928;18.522;2022-09-21T06:36:02;13.30;99.90
22321;DHT22;11328;53.928;18.522;2022-09-21T06:38:30;13.20;99.90
22321;DHT22;11328;53.928;18.522;2022-09-21T06:41:03;13.30;99.90
22321;DHT22;11328;53.928;18.522;2022-09-21T06:43:31;13.40;99.90
22321;DHT22;11328;53.928;18.522;2022-09-21T06:46:00;13.40;99.90
22321;DHT22;11328;53.928;18.522;2022-09-21T06:48:30;13.30;99.90
22321;DHT22;11328;53.928;18.522;2022-09-21T06:51:00;13.20;99.90
22321;DHT22;11328;53.928;18.522;2022-09-21T06:53:31;13.20;99.90
22321;DHT22;11328;53.928;18.522;2022-09-21T06:56:01;13.20;99.90
22321;DHT22;11328;53.928;18.522;2022-09-21T06:58:30;13.30;99.90
22321;DHT22;11328;53.928;18.522;2022-09-21T07:01:07;13.30;99.90
22321;DHT22;11328;53.928;18.522;2022-09-21T07:03:38;13.30;99.90
22321;DHT22;11328;53.928;18.522;2022-09-21T07:06:09;13.30;99.90
22321;DHT22;11328;53.928;18.522;2022-09-21T07:08:40;13.30;99.90
22321;DHT22;11328;53.928;18.522;2022-09-21T07:11:30;13.40;99.90
22321;DHT22;11328;53.928;18.522;2022-09-21T07:13:58;13.20;99.90
22321;DHT22;11328;53.928;18.522;2022-09-21T07:16:26;13.20;99.90
22321;DHT22;11328;53.928;18.522;2022-09-21T07:18:54;13.30;99.90
22321;DHT22;11328;53.928;18.522;2022-09-21T07:21:23;13.30;99.90
22321;DHT22;11328;53.928;18.522;2022-09-21T07:23:51;13.30;99.90
22321;DHT22;11328;53.928;18.522;2022-09-21T07:26:19;13.50;99.90
22321;DHT22;11328;53.928;18.522;2022-09-21T07:28:48;13.40;99.90
22321;DHT22;11328;53.928;18.522;2022-09-21T07:31:16;13.50;99.90
22321;DHT22;11328;53.928;18.522;2022-09-21T07:33:44;13.50;99.90
22321;DHT22;11328;53.928;18.522;2022-09-21T07:36:14;13.50;99.90
22321;DHT22;11328;53.928;18.522;2022-09-21T07:38:43;13.50;99.90
22321;DHT22;11328;53.928;18.522;2022-09-21T07:41:12;13.40;99.90
22321;DHT22;11328;53.928;18.522;2022-09-21T07:43:40;13.50;99.90
22321;DHT22;11328;53.928;18.522;2022-09-21T07:46:10;13.60;99.90
22321;DHT22;11328;53.928;18.522;2022-09-21T07:48:40;13.60;99.90
22321;DHT22;11328;53.928;18.522;2022-09-21T07:51:09;13.70;99.90
22321;DHT22;11328;53.928;18.522;2022-09-21T07:53:40;13.70;99.90
22321;DHT22;11328;53.928;18.522;2022-09-21T07:56:12;13.70;99.90
22321;DHT22;11328;53.928;18.522;2022-09-21T07:58:42;13.80;99.90
22321;DHT22;11328;53.928;18.522;2022-09-21T08:01:29;13.70;99.90
22321;DHT22;11328;53.928;18.522;2022-09-21T08:03:58;13.80;99.90
22321;DHT22;11328;53.928;18.522;2022-09-21T08:06:28;13.90;99.90
22321;DHT22;11328;53.928;18.522;2022-09-21T08:09:00;13.90;99.90
22321;DHT22;11328;53.928;18.522;2022-09-21T08:11:30;14.10;99.90
22321;DHT22;11328;53.928;18.522;2022-09-21T08:14:01;14.20;99.90
22321;DHT22;11328;53.928;18.522;2022-09-21T08:16:30;14.30;99.90
22321;DHT22;11328;53.928;18.522;2022-09-21T08:18:58;14.40;99.90
22321;DHT22;11328;53.928;18.522;2022-09-21T08:21:27;14.60;99.90
22321;DHT22;11328;53.928;18.522;2022-09-21T08:23:55;14.60;99.90
22321;DHT22;11328;53.928;18.522;2022-09-21T08:26:23;14.70;99.90
22321;DHT22;11328;53.928;18.522;2022-09-21T08:28:54;14.60;99.90
22321;DHT22;11328;53.928;18.522;2022-09-21T08:31:25;14.70;99.90
22321;DHT22;11328;53.928;18.522;2022-09-21T08:33:54;14.80;99.90
22321;DHT22;11328;53.928;18.522;2022-09-21T08:36:24;14.80;99.90
22321;DHT22;11328;53.928;18.522;2022-09-21T08:38:52;14.90;99.90
22321;DHT22;11328;53.928;18.522;2022-09-21T08:44:23;15.60;99.90
22321;DHT22;11328;53.928;18.522;2022-09-21T08:50:46;15.70;99.90
22321;DHT22;11328;53.928;18.522;2022-09-21T08:53:40;15.90;99.90
22321;DHT22;11328;53.928;18.522;2022-09-21T08:56:13;15.70;99.90
22321;DHT22;11328;53.928;18.522;2022-09-21T08:58:42;15.70;99.90
22321;DHT22;11328;53.928;18.522;2022-09-21T09:12:56;15.80;99.90
22321;DHT22;11328;53.928;18.522;2022-09-21T09:21:24;16.40;99.90
22321;DHT22;11328;53.928;18.522;2022-09-21T09:24:02;16.30;99.90
22321;DHT22;11328;53.928;18.522;2022-09-21T09:31:44;16.70;99.90
22321;DHT22;11328;53.928;18.522;2022-09-21T09:37:16;16.80;99.90
22321;DHT22;11328;53.928;18.522;2022-09-21T09:39:54;16.70;99.90
22321;DHT22;11328;53.928;18.522;2022-09-21T09:42:59;17.00;99.90
22321;DHT22;11328;53.928;18.522;2022-09-21T09:46:04;17.20;99.90
22321;DHT22;11328;53.928;18.522;2022-09-21T09:49:54;17.00;99.90
22321;DHT22;11328;53.928;18.522;2022-09-21T09:51:57;16.80;99.90
22321;DHT22;11328;53.928;18.522;2022-09-21T09:54:26;17.10;99.90
22321;DHT22;11328;53.928;18.522;2022-09-21T09:56:56;17.50;99.90
22321;DHT22;11328;53.928;18.522;2022-09-21T09:59:25;17.70;99.90
22321;DHT22;11328;53.928;18.522;2022-09-21T10:02:23;17.50;99.90
22321;DHT22;11328;53.928;18.522;2022-09-21T10:05:03;17.70;99.90
22321;DHT22;11328;53.928;18.522;2022-09-21T10:07:38;17.60;99.90
22321;DHT22;11328;53.928;18.522;2022-09-21T10:13:30;17.40;99.90
22321;DHT22;11328;53.928;18.522;2022-09-21T10:16:03;17.50;99.90
22321;DHT22;11328;53.928;18.522;2022-09-21T10:18:43;17.40;99.90
22321;DHT22;11328;53.928;18.522;2022-09-21T10:21:34;17.60;99.90
22321;DHT22;11328;53.928;18.522;2022-09-21T10:24:19;17.60;99.90
22321;DHT22;11328;53.928;18.522;2022-09-21T10:32:02;17.90;99.90
22321;DHT22;11328;53.928;18.522;2022-09-21T10:34:41;18.00;99.90
22321;DHT22;11328;53.928;18.522;2022-09-21T10:37:32;18.00;99.90
22321;DHT22;11328;53.928;18.522;2022-09-21T10:40:05;17.90;99.90
22321;DHT22;11328;53.928;18.522;2022-09-21T10:42:53;17.60;99.90
22321;DHT22;11328;53.928;18.522;2022-09-21T10:45:27;17.50;99.90
22321;DHT22;11328;53.928;18.522;2022-09-21T10:48:11;17.60;99.90
22321;DHT22;11328;53.928;18.522;2022-09-21T10:50:47;17.40;99.90
22321;DHT22;11328;53.928;18.522;2022-09-21T10:53:26;17.30;99.90
22321;DHT22;11328;53.928;18.522;2022-09-21T10:56:16;17.10;99.90
22321;DHT22;11328;53.928;18.522;2022-09-21T11:01:49;17.10;99.90
22321;DHT22;11328;53.928;18.522;2022-09-21T11:07:40;17.40;99.90
22321;DHT22;11328;53.928;18.522;2022-09-21T11:10:45;17.30;99.90
22321;DHT22;11328;53.928;18.522;2022-09-21T11:16:30;17.60;99.90
22321;DHT22;11328;53.928;18.522;2022-09-21T11:28:32;17.40;99.90
22321;DHT22;11328;53.928;18.522;2022-09-21T11:37:49;17.40;99.90
22321;DHT22;11328;53.928;18.522;2022-09-21T11:46:05;17.20;99.90
22321;DHT22;11328;53.928;18.522;2022-09-21T11:48:52;17.30;99.90
22321;DHT22;11328;53.928;18.522;2022-09-21T11:54:28;17.40;99.90
22321;DHT22;11328;53.928;18.522;2022-09-21T12:08:03;17.80;99.90
22321;DHT22;11328;53.928;18.522;2022-09-21T12:13:37;17.70;99.90
22321;DHT22;11328;53.928;18.522;2022-09-21T12:16:37;17.70;99.90
22321;DHT22;11328;53.928;18.522;2022-09-21T12:19:38;17.60;99.90
22321;DHT22;11328;53.928;18.522;2022-09-21T12:22:28;17.50;99.90
22321;DHT22;11328;53.928;18.522;2022-09-21T12:25:19;17.50;99.90
22321;DHT22;11328;53.928;18.522;2022-09-21T12:27:59;17.50;99.90
22321;DHT22;11328;53.928;18.522;2022-09-21T12:30:33;17.40;99.90
22321;DHT22;11328;53.928;18.522;2022-09-21T12:36:36;17.50;99.90
22321;DHT22;11328;53.928;18.522;2022-09-21T12:39:52;17.50;99.90
22321;DHT22;11328;53.928;18.522;2022-09-21T12:42:27;17.70;99.90
22321;DHT22;11328;53.928;18.522;2022-09-21T12:45:16;17.90;99.90
22321;DHT22;11328;53.928;18.522;2022-09-21T12:48:06;17.80;99.90
22321;DHT22;11328;53.928;18.522;2022-09-21T12:53:44;17.90;99.90
22321;DHT22;11328;53.928;18.522;2022-09-21T13:05:17;17.80;99.90
22321;DHT22;11328;53.928;18.522;2022-09-21T13:08:12;17.80;99.90
22321;DHT22;11328;53.928;18.522;2022-09-21T13:10:56;17.70;99.90
22321;DHT22;11328;53.928;18.522;2022-09-21T13:13:44;17.50;99.90
22321;DHT22;11328;53.928;18.522;2022-09-21T13:16:23;17.40;99.90
22321;DHT22;11328;53.928;18.522;2022-09-21T13:19:01;17.40;99.90
22321;DHT22;11328;53.928;18.522;2022-09-21T13:21:32;17.40;99.90
22321;DHT22;11328;53.928;18.522;2022-09-21T13:24:05;17.50;99.90
22321;DHT22;11328;53.928;18.522;2022-09-21T13:26:55;17.40;99.90
22321;DHT22;11328;53.928;18.522;2022-09-21T13:29:35;17.40;99.90
22321;DHT22;11328;53.928;18.522;2022-09-21T13:34:43;17.30;99.90
22321;DHT22;11328;53.928;18.522;2022-09-21T13:45:48;17.00;99.90
22321;DHT22;11328;53.928;18.522;2022-09-21T13:47:53;17.00;99.90
22321;DHT22;11328;53.928;18.522;2022-09-21T13:50:30;17.10;99.90
22321;DHT22;11328;53.928;18.522;2022-09-21T13:53:18;17.20;99.90
22321;DHT22;11328;53.928;18.522;2022-09-21T13:55:54;17.30;99.90
22321;DHT22;11328;53.928;18.522;2022-09-21T13:58:32;17.30;99.90
22321;DHT22;11328;53.928;18.522;2022-09-21T14:01:31;17.20;99.90
22321;DHT22;11328;53.928;18.522;2022-09-21T14:04:27;17.10;99.90
22321;DHT22;11328;53.928;18.522;2022-09-21T14:07:03;17.20;99.90
22321;DHT22;11328;53.928;18.522;2022-09-21T14:09:50;17.20;99.90
22321;DHT22;11328;53.928;18.522;2022-09-21T14:12:26;17.30;99.90
22321;DHT22;11328;53.928;18.522;2022-09-21T14:15:32;17.30;99.90
22321;DHT22;11328;53.928;18.522;2022-09-21T14:21:10;17.00;99.90
22321;DHT22;11328;53.928;18.522;2022-09-21T14:29:32;16.80;99.90
22321;DHT22;11328;53.928;18.522;2022-09-21T14:32:06;16.70;99.90
22321;DHT22;11328;53.928;18.522;2022-09-21T14:34:46;16.40;99.90
22321;DHT22;11328;53.928;18.522;2022-09-21T14:40:00;16.30;99.90
22321;DHT22;11328;53.928;18.522;2022-09-21T14:42:33;16.10;99.90
22321;DHT22;11328;53.928;18.522;2022-09-21T14:45:02;16.10;99.90
22321;DHT22;11328;53.928;18.522;2022-09-21T14:50:29;15.90;99.90
22321;DHT22;11328;53.928;18.522;2022-09-21T15:02:20;15.90;99.90
22321;DHT22;11328;53.928;18.522;2022-09-21T15:05:00;15.90;99.90
22321;DHT22;11328;53.928;18.522;2022-09-21T15:21:46;16.00;99.90
22321;DHT22;11328;53.928;18.522;2022-09-21T15:26:49;16.00;99.90
22321;DHT22;11328;53.928;18.522;2022-09-21T15:29:28;15.90;99.90
22321;DHT22;11328;53.928;18.522;2022-09-21T15:31:58;15.90;99.90
22321;DHT22;11328;53.928;18.522;2022-09-21T15:34:27;15.80;99.90
22321;DHT22;11328;53.928;18.522;2022-09-21T15:37:10;15.60;99.90
22321;DHT22;11328;53.928;18.522;2022-09-21T15:39:43;15.60;99.90
22321;DHT22;11328;53.928;18.522;2022-09-21T15:42:19;15.50;99.90
22321;DHT22;11328;53.928;18.522;2022-09-21T15:44:49;15.50;99.90
22321;DHT22;11328;53.928;18.522;2022-09-21T15:47:33;15.40;99.90
22321;DHT22;11328;53.928;18.522;2022-09-21T15:50:01;15.30;99.90
22321;DHT22;11328;53.928;18.522;2022-09-21T15:52:38;15.30;99.90
22321;DHT22;11328;53.928;18.522;2022-09-21T15:55:19;15.30;99.90
22321;DHT22;11328;53.928;18.522;2022-09-21T15:57:53;15.30;99.90
22321;DHT22;11328;53.928;18.522;2022-09-21T16:00:29;15.30;99.90
22321;DHT22;11328;53.928;18.522;2022-09-21T16:03:06;15.30;99.90
22321;DHT22;11328;53.928;18.522;2022-09-21T16:05:44;15.30;99.90
22321;DHT22;11328;53.928;18.522;2022-09-21T16:08:35;15.30;99.90
22321;DHT22;11328;53.928;18.522;2022-09-21T16:13:46;15.20;99.90
22321;DHT22;11328;53.928;18.522;2022-09-21T16:22:40;15.10;99.90
22321;DHT22;11328;53.928;18.522;2022-09-21T16:25:34;15.10;99.90
22321;DHT22;11328;53.928;18.522;2022-09-21T16:38:45;14.50;99.90
22321;DHT22;11328;53.928;18.522;2022-09-21T16:41:14;14.60;99.90
22321;DHT22;11328;53.928;18.522;2022-09-21T16:43:42;14.60;99.90
22321;DHT22;11328;53.928;18.522;2022-09-21T16:46:11;14.50;99.90
22321;DHT22;11328;53.928;18.522;2022-09-21T16:48:40;14.50;99.90
22321;DHT22;11328;53.928;18.522;2022-09-21T16:51:12;14.40;99.90
22321;DHT22;11328;53.928;18.522;2022-09-21T16:53:41;14.40;99.90
22321;DHT22;11328;53.928;18.522;2022-09-21T16:56:13;14.30;99.90
22321;DHT22;11328;53.928;18.522;2022-09-21T16:58:41;14.30;99.90
22321;DHT22;11328;53.928;18.522;2022-09-21T17:01:12;14.30;99.90
22321;DHT22;11328;53.928;18.522;2022-09-21T17:03:42;14.20;99.90
22321;DHT22;11328;53.928;18.522;2022-09-21T17:06:18;14.20;99.90
22321;DHT22;11328;53.928;18.522;2022-09-21T17:08:51;14.20;99.90
22321;DHT22;11328;53.928;18.522;2022-09-21T17:11:19;14.10;99.90
22321;DHT22;11328;53.928;18.522;2022-09-21T17:13:49;14.10;99.90
22321;DHT22;11328;53.928;18.522;2022-09-21T17:16:18;14.00;99.90
22321;DHT22;11328;53.928;18.522;2022-09-21T17:18:47;14.00;99.90
22321;DHT22;11328;53.928;18.522;2022-09-21T17:21:16;13.90;99.90
22321;DHT22;11328;53.928;18.522;2022-09-21T17:23:46;13.80;99.90
22321;DHT22;11328;53.928;18.522;2022-09-21T17:26:16;13.80;99.90
22321;DHT22;11328;53.928;18.522;2022-09-21T17:28:46;13.70;99.90
22321;DHT22;11328;53.928;18.522;2022-09-21T17:31:15;13.60;99.90
22321;DHT22;11328;53.928;18.522;2022-09-21T17:33:43;13.50;99.90
22321;DHT22;11328;53.928;18.522;2022-09-21T17:36:14;13.50;99.90
22321;DHT22;11328;53.928;18.522;2022-09-21T17:38:43;13.40;99.90
22321;DHT22;11328;53.928;18.522;2022-09-21T17:41:28;13.40;99.90
22321;DHT22;11328;53.928;18.522;2022-09-21T17:47:43;13.40;99.90
22321;DHT22;11328;53.928;18.522;2022-09-21T17:52:40;13.10;99.90
22321;DHT22;11328;53.928;18.522;2022-09-21T17:55:28;13.10;99.90
22321;DHT22;11328;53.928;18.522;2022-09-21T18:01:04;13.10;99.90
22321;DHT22;11328;53.928;18.522;2022-09-21T18:03:36;13.00;99.90
22321;DHT22;11328;53.928;18.522;2022-09-21T18:06:09;13.00;99.90
22321;DHT22;11328;53.928;18.522;2022-09-21T18:08:38;13.00;99.90
22321;DHT22;11328;53.928;18.522;2022-09-21T18:25:53;12.70;99.90
22321;DHT22;11328;53.928;18.522;2022-09-21T18:28:41;12.70;99.90
22321;DHT22;11328;53.928;18.522;2022-09-21T18:31:38;12.60;99.90
22321;DHT22;11328;53.928;18.522;2022-09-21T18:40:43;12.60;99.90
22321;DHT22;11328;53.928;18.522;2022-09-21T18:43:27;12.50;99.90
22321;DHT22;11328;53.928;18.522;2022-09-21T18:46:04;12.50;99.90
22321;DHT22;11328;53.928;18.522;2022-09-21T18:54:38;12.40;99.90
22321;DHT22;11328;53.928;18.522;2022-09-21T18:57:11;12.30;99.90
22321;DHT22;11328;53.928;18.522;2022-09-21T18:59:41;12.30;99.90
22321;DHT22;11328;53.928;18.522;2022-09-21T19:02:13;12.20;99.90
22321;DHT22;11328;53.928;18.522;2022-09-21T19:04:45;12.30;99.90
22321;DHT22;11328;53.928;18.522;2022-09-21T19:07:37;12.20;99.90
22321;DHT22;11328;53.928;18.522;2022-09-21T19:10:18;12.20;99.90
22321;DHT22;11328;53.928;18.522;2022-09-21T19:13:28;12.20;99.90
22321;DHT22;11328;53.928;18.522;2022-09-21T19:19:16;12.10;99.90
22321;DHT22;11328;53.928;18.522;2022-09-21T19:22:17;12.00;99.90
22321;DHT22;11328;53.928;18.522;2022-09-21T19:31:17;11.70;99.90
22321;DHT22;11328;53.928;18.522;2022-09-21T19:33:47;11.60;99.90
22321;DHT22;11328;53.928;18.522;2022-09-21T19:36:18;11.50;99.90
22321;DHT22;11328;53.928;18.522;2022-09-21T19:38:46;11.50;99.90
22321;DHT22;11328;53.928;18.522;2022-09-21T19:50:11;11.40;99.90
22321;DHT22;11328;53.928;18.522;2022-09-21T19:52:44;11.30;99.90
22321;DHT22;11328;53.928;18.522;2022-09-21T19:55:18;11.30;99.90
22321;DHT22;11328;53.928;18.522;2022-09-21T19:58:05;11.20;99.90
22321;DHT22;11328;53.928;18.522;2022-09-21T20:00:56;11.10;99.90
22321;DHT22;11328;53.928;18.522;2022-09-21T20:03:40;11.00;99.90
22321;DHT22;11328;53.928;18.522;2022-09-21T20:06:26;11.00;99.90
22321;DHT22;11328;53.928;18.522;2022-09-21T20:09:31;11.10;99.90
22321;DHT22;11328;53.928;18.522;2022-09-21T20:12:40;11.00;99.90
22321;DHT22;11328;53.928;18.522;2022-09-21T20:21:55;10.70;99.90
22321;DHT22;11328;53.928;18.522;2022-09-21T20:24:39;10.70;99.90
22321;DHT22;11328;53.928;18.522;2022-09-21T20:27:36;10.70;99.90
22321;DHT22;11328;53.928;18.522;2022-09-21T20:30:12;10.70;99.90
22321;DHT22;11328;53.928;18.522;2022-09-21T20:32:43;10.60;99.90
22321;DHT22;11328;53.928;18.522;2022-09-21T20:35:18;10.60;99.90
22321;DHT22;11328;53.928;18.522;2022-09-21T20:37:49;10.60;99.90
22321;DHT22;11328;53.928;18.522;2022-09-21T20:40:27;10.60;99.90
22321;DHT22;11328;53.928;18.522;2022-09-21T20:42:55;10.50;99.90
22321;DHT22;11328;53.928;18.522;2022-09-21T20:45:25;10.60;99.90
22321;DHT22;11328;53.928;18.522;2022-09-21T20:47:54;10.50;99.90
22321;DHT22;11328;53.928;18.522;2022-09-21T20:50:45;10.50;99.90
22321;DHT22;11328;53.928;18.522;2022-09-21T20:53:15;10.40;99.90